sensor_id;sensor_type;location;lat;lon;timestamp;P1;durP1;ratioP1;P2;durP2;ratioP2
53652;SDS011;39553;52.954;5.932;2022-11-15T00:00:52;25.58;;;15.40;;
53652;SDS011;39553;52.954;5.932;2022-11-15T00:03:25;29.27;;;15.63;;
53652;SDS011;39553;52.954;5.932;2022-11-15T00:05:52;22.58;;;13.82;;
53652;SDS011;39553;52.954;5.932;2022-11-15T00:08:18;29.67;;;14.85;;
53652;SDS011;39553;52.954;5.932;2022-11-15T00:10:57;28.60;;;15.90;;
53652;SDS011;39553;52.954;5.932;2022-11-15T00:13:24;28.17;;;15.07;;
53652;SDS011;39553;52.954;5.932;2022-11-15T00:15:50;25.23;;;14.85;;
53652;SDS011;39553;52.954;5.932;2022-11-15T00:18:16;27.05;;;15.85;;
53652;SDS011;39553;52.954;5.932;2022-11-15T00:20:42;26.50;;;15.38;;
53652;SDS011;39553;52.954;5.932;2022-11-15T00:23:08;27.33;;;15.13;;
53652;SDS011;39553;52.954;5.932;2022-11-15T00:25:34;27.65;;;15.50;;
53652;SDS011;39553;52.954;5.932;2022-11-15T00:28:00;27.92;;;14.75;;
53652;SDS011;39553;52.954;5.932;2022-11-15T00:30:26;26.23;;;15.00;;
53652;SDS011;39553;52.954;5.932;2022-11-15T00:32:53;25.95;;;15.77;;
53652;SDS011;39553;52.954;5.932;2022-11-15T00:35:19;27.70;;;15.63;;
53652;SDS011;39553;52.954;5.932;2022-11-15T00:37:45;29.65;;;17.27;;
53652;SDS011;39553;52.954;5.932;2022-11-15T00:40:12;30.05;;;17.17;;
53652;SDS011;39553;52.954;5.932;2022-11-15T00:42:38;33.47;;;18.60;;
53652;SDS011;39553;52.954;5.932;2022-11-15T00:45:04;29.20;;;17.65;;
53652;SDS011;39553;52.954;5.932;2022-11-15T00:47:30;32.00;;;18.13;;
53652;SDS011;39553;52.954;5.932;2022-11-15T00:49:56;31.40;;;17.83;;
53652;SDS011;39553;52.954;5.932;2022-11-15T00:52:22;30.33;;;17.85;;
53652;SDS011;39553;52.954;5.932;2022-11-15T00:54:48;29.40;;;17.23;;
53652;SDS011;39553;52.954;5.932;2022-11-15T00:57:14;33.20;;;18.33;;
53652;SDS011;39553;52.954;5.932;2022-11-15T00:59:39;29.58;;;18.52;;
53652;SDS011;39553;52.954;5.932;2022-11-15T01:02:05;32.60;;;18.77;;
53652;SDS011;39553;52.954;5.932;2022-11-15T01:04:31;31.55;;;18.98;;
53652;SDS011;39553;52.954;5.932;2022-11-15T01:06:57;33.72;;;19.90;;
53652;SDS011;39553;52.954;5.932;2022-11-15T01:09:22;35.00;;;18.83;;
53652;SDS011;39553;52.954;5.932;2022-11-15T01:11:48;34.78;;;18.70;;
53652;SDS011;39553;52.954;5.932;2022-11-15T01:14:14;31.42;;;18.30;;
53652;SDS011;39553;52.954;5.932;2022-11-15T01:16:39;30.48;;;16.95;;
53652;SDS011;39553;52.954;5.932;2022-11-15T01:19:05;32.50;;;19.08;;
53652;SDS011;39553;52.954;5.932;2022-11-15T01:21:31;31.63;;;18.40;;
53652;SDS011;39553;52.954;5.932;2022-11-15T01:23:57;32.75;;;18.83;;
53652;SDS011;39553;52.954;5.932;2022-11-15T01:26:23;30.52;;;16.42;;
53652;SDS011;39553;52.954;5.932;2022-11-15T01:28:49;35.53;;;18.60;;
53652;SDS011;39553;52.954;5.932;2022-11-15T01:31:16;30.13;;;18.50;;
53652;SDS011;39553;52.954;5.932;2022-11-15T01:33:44;31.05;;;16.98;;
53652;SDS011;39553;52.954;5.932;2022-11-15T01:36:11;31.05;;;16.33;;
53652;SDS011;39553;52.954;5.932;2022-11-15T01:38:44;29.73;;;16.97;;
53652;SDS011;39553;52.954;5.932;2022-11-15T01:41:16;31.73;;;17.42;;
53652;SDS011;39553;52.954;5.932;2022-11-15T01:46:25;33.42;;;17.60;;
53652;SDS011;39553;52.954;5.932;2022-11-15T01:48:59;35.28;;;18.15;;
53652;SDS011;39553;52.954;5.932;2022-11-15T01:51:29;31.95;;;16.92;;
53652;SDS011;39553;52.954;5.932;2022-11-15T01:54:00;29.83;;;16.48;;
53652;SDS011;39553;52.954;5.932;2022-11-15T01:56:32;33.55;;;16.73;;
53652;SDS011;39553;52.954;5.932;2022-11-15T01:59:03;28.15;;;15.88;;
53652;SDS011;39553;52.954;5.932;2022-11-15T02:01:30;35.67;;;17.23;;
53652;SDS011;39553;52.954;5.932;2022-11-15T02:03:59;32.20;;;17.25;;
53652;SDS011;39553;52.954;5.932;2022-11-15T02:06:42;35.70;;;17.20;;
53652;SDS011;39553;52.954;5.932;2022-11-15T02:09:09;29.98;;;16.30;;
53652;SDS011;39553;52.954;5.932;2022-11-15T02:11:36;32.55;;;17.33;;
53652;SDS011;39553;52.954;5.932;2022-11-15T02:14:02;36.35;;;18.88;;
53652;SDS011;39553;52.954;5.932;2022-11-15T02:19:11;33.33;;;18.10;;
53652;SDS011;39553;52.954;5.932;2022-11-15T02:30:41;36.78;;;19.20;;
53652;SDS011;39553;52.954;5.932;2022-11-15T02:36:01;38.45;;;20.92;;
53652;SDS011;39553;52.954;5.932;2022-11-15T02:38:38;44.72;;;20.80;;
53652;SDS011;39553;52.954;5.932;2022-11-15T02:41:17;40.63;;;21.00;;
53652;SDS011;39553;52.954;5.932;2022-11-15T02:44:03;49.58;;;22.20;;
53652;SDS011;39553;52.954;5.932;2022-11-15T02:49:36;47.33;;;22.00;;
53652;SDS011;39553;52.954;5.932;2022-11-15T02:52:04;41.78;;;21.10;;
53652;SDS011;39553;52.954;5.932;2022-11-15T02:54:32;46.10;;;21.67;;
53652;SDS011;39553;52.954;5.932;2022-11-15T02:57:04;53.63;;;22.80;;
53652;SDS011;39553;52.954;5.932;2022-11-15T03:05:29;50.22;;;22.13;;
53652;SDS011;39553;52.954;5.932;2022-11-15T03:08:10;44.30;;;23.02;;
53652;SDS011;39553;52.954;5.932;2022-11-15T03:11:12;49.70;;;21.17;;
53652;SDS011;39553;52.954;5.932;2022-11-15T03:13:58;48.97;;;22.90;;
53652;SDS011;39553;52.954;5.932;2022-11-15T03:16:39;50.38;;;22.30;;
53652;SDS011;39553;52.954;5.932;2022-11-15T03:19:18;68.85;;;24.80;;
53652;SDS011;39553;52.954;5.932;2022-11-15T03:21:51;54.90;;;23.10;;
53652;SDS011;39553;52.954;5.932;2022-11-15T03:24:20;52.40;;;23.35;;
53652;SDS011;39553;52.954;5.932;2022-11-15T03:26:47;63.30;;;25.60;;
53652;SDS011;39553;52.954;5.932;2022-11-15T03:29:17;65.88;;;26.65;;
53652;SDS011;39553;52.954;5.932;2022-11-15T03:31:51;73.78;;;25.58;;
53652;SDS011;39553;52.954;5.932;2022-11-15T03:40:22;70.63;;;27.95;;
53652;SDS011;39553;52.954;5.932;2022-11-15T03:45:43;66.40;;;26.10;;
53652;SDS011;39553;52.954;5.932;2022-11-15T03:48:19;66.78;;;26.23;;
53652;SDS011;39553;52.954;5.932;2022-11-15T03:50:49;65.15;;;27.40;;
53652;SDS011;39553;52.954;5.932;2022-11-15T03:53:16;75.30;;;28.30;;
53652;SDS011;39553;52.954;5.932;2022-11-15T03:55:41;72.13;;;28.33;;
53652;SDS011;39553;52.954;5.932;2022-11-15T03:58:07;65.88;;;27.83;;
53652;SDS011;39553;52.954;5.932;2022-11-15T04:00:33;68.28;;;27.73;;
53652;SDS011;39553;52.954;5.932;2022-11-15T04:02:59;70.35;;;27.83;;
53652;SDS011;39553;52.954;5.932;2022-11-15T04:05:24;64.82;;;27.60;;
53652;SDS011;39553;52.954;5.932;2022-11-15T04:07:50;61.38;;;24.45;;
53652;SDS011;39553;52.954;5.932;2022-11-15T04:10:16;63.72;;;25.73;;
53652;SDS011;39553;52.954;5.932;2022-11-15T04:12:43;66.40;;;26.30;;
53652;SDS011;39553;52.954;5.932;2022-11-15T04:15:16;64.38;;;25.92;;
53652;SDS011;39553;52.954;5.932;2022-11-15T04:17:44;57.20;;;25.95;;
53652;SDS011;39553;52.954;5.932;2022-11-15T04:20:16;56.80;;;25.10;;
53652;SDS011;39553;52.954;5.932;2022-11-15T04:23:15;59.45;;;25.98;;
53652;SDS011;39553;52.954;5.932;2022-11-15T04:26:15;64.45;;;27.13;;
53652;SDS011;39553;52.954;5.932;2022-11-15T04:28:42;63.70;;;27.83;;
53652;SDS011;39553;52.954;5.932;2022-11-15T04:31:27;62.40;;;26.98;;
53652;SDS011;39553;52.954;5.932;2022-11-15T04:33:53;77.03;;;29.88;;
53652;SDS011;39553;52.954;5.932;2022-11-15T04:36:19;69.45;;;30.42;;
53652;SDS011;39553;52.954;5.932;2022-11-15T04:39:04;75.93;;;30.13;;
53652;SDS011;39553;52.954;5.932;2022-11-15T04:41:30;83.70;;;29.13;;
53652;SDS011;39553;52.954;5.932;2022-11-15T04:43:55;79.15;;;31.02;;
53652;SDS011;39553;52.954;5.932;2022-11-15T04:46:22;80.72;;;31.67;;
53652;SDS011;39553;52.954;5.932;2022-11-15T04:48:48;81.00;;;30.92;;
53652;SDS011;39553;52.954;5.932;2022-11-15T04:51:14;69.95;;;31.52;;
53652;SDS011;39553;52.954;5.932;2022-11-15T04:53:40;75.25;;;29.83;;
53652;SDS011;39553;52.954;5.932;2022-11-15T04:56:06;84.43;;;33.28;;
53652;SDS011;39553;52.954;5.932;2022-11-15T04:58:32;73.13;;;31.45;;
53652;SDS011;39553;52.954;5.932;2022-11-15T05:00:58;75.68;;;33.92;;
53652;SDS011;39553;52.954;5.932;2022-11-15T05:03:23;86.05;;;33.58;;
53652;SDS011;39553;52.954;5.932;2022-11-15T05:06:07;74.40;;;33.17;;
53652;SDS011;39553;52.954;5.932;2022-11-15T05:08:33;78.68;;;32.40;;
53652;SDS011;39553;52.954;5.932;2022-11-15T05:10:59;77.45;;;34.28;;
53652;SDS011;39553;52.954;5.932;2022-11-15T05:13:24;81.32;;;34.50;;
53652;SDS011;39553;52.954;5.932;2022-11-15T05:15:50;80.93;;;36.03;;
53652;SDS011;39553;52.954;5.932;2022-11-15T05:18:16;82.07;;;34.20;;
53652;SDS011;39553;52.954;5.932;2022-11-15T05:20:41;95.35;;;37.90;;
53652;SDS011;39553;52.954;5.932;2022-11-15T05:23:07;88.80;;;34.88;;
53652;SDS011;39553;52.954;5.932;2022-11-15T05:25:33;85.03;;;35.92;;
53652;SDS011;39553;52.954;5.932;2022-11-15T05:28:00;93.20;;;37.13;;
53652;SDS011;39553;52.954;5.932;2022-11-15T05:30:26;107.47;;;39.38;;
53652;SDS011;39553;52.954;5.932;2022-11-15T05:32:51;102.10;;;39.40;;
53652;SDS011;39553;52.954;5.932;2022-11-15T05:35:20;98.40;;;35.90;;
53652;SDS011;39553;52.954;5.932;2022-11-15T05:37:54;90.82;;;37.15;;
53652;SDS011;39553;52.954;5.932;2022-11-15T05:40:20;112.38;;;39.67;;
53652;SDS011;39553;52.954;5.932;2022-11-15T05:42:46;92.82;;;39.33;;
53652;SDS011;39553;52.954;5.932;2022-11-15T05:45:12;104.78;;;40.78;;
53652;SDS011;39553;52.954;5.932;2022-11-15T05:47:39;86.75;;;37.13;;
53652;SDS011;39553;52.954;5.932;2022-11-15T05:50:05;106.22;;;39.85;;
53652;SDS011;39553;52.954;5.932;2022-11-15T05:52:32;86.90;;;36.97;;
53652;SDS011;39553;52.954;5.932;2022-11-15T05:55:01;100.45;;;39.80;;
53652;SDS011;39553;52.954;5.932;2022-11-15T05:57:29;90.82;;;36.58;;
53652;SDS011;39553;52.954;5.932;2022-11-15T05:59:55;83.10;;;37.15;;
53652;SDS011;39553;52.954;5.932;2022-11-15T06:02:21;95.70;;;37.67;;
53652;SDS011;39553;52.954;5.932;2022-11-15T06:04:46;97.20;;;39.38;;
53652;SDS011;39553;52.954;5.932;2022-11-15T06:07:12;104.05;;;39.85;;
53652;SDS011;39553;52.954;5.932;2022-11-15T06:09:38;86.25;;;37.50;;
53652;SDS011;39553;52.954;5.932;2022-11-15T06:12:03;93.78;;;37.78;;
53652;SDS011;39553;52.954;5.932;2022-11-15T06:14:29;95.32;;;38.85;;
53652;SDS011;39553;52.954;5.932;2022-11-15T06:16:55;94.28;;;38.33;;
53652;SDS011;39553;52.954;5.932;2022-11-15T06:19:21;105.80;;;41.75;;
53652;SDS011;39553;52.954;5.932;2022-11-15T06:21:46;114.97;;;40.53;;
53652;SDS011;39553;52.954;5.932;2022-11-15T06:24:12;100.65;;;39.13;;
53652;SDS011;39553;52.954;5.932;2022-11-15T06:26:38;96.30;;;38.00;;
53652;SDS011;39553;52.954;5.932;2022-11-15T06:29:04;97.07;;;39.72;;
53652;SDS011;39553;52.954;5.932;2022-11-15T06:31:29;114.85;;;40.65;;
53652;SDS011;39553;52.954;5.932;2022-11-15T06:33:55;98.13;;;38.47;;
53652;SDS011;39553;52.954;5.932;2022-11-15T06:36:21;96.28;;;38.78;;
53652;SDS011;39553;52.954;5.932;2022-11-15T06:38:47;86.30;;;39.15;;
53652;SDS011;39553;52.954;5.932;2022-11-15T06:41:13;102.90;;;39.50;;
53652;SDS011;39553;52.954;5.932;2022-11-15T06:43:39;88.32;;;37.75;;
53652;SDS011;39553;52.954;5.932;2022-11-15T06:46:06;88.78;;;37.85;;
53652;SDS011;39553;52.954;5.932;2022-11-15T06:48:32;88.97;;;38.78;;
53652;SDS011;39553;52.954;5.932;2022-11-15T06:50:59;85.10;;;36.10;;
53652;SDS011;39553;52.954;5.932;2022-11-15T06:53:26;89.28;;;36.47;;
53652;SDS011;39553;52.954;5.932;2022-11-15T06:55:52;82.25;;;36.63;;
53652;SDS011;39553;52.954;5.932;2022-11-15T06:58:20;90.00;;;36.85;;
53652;SDS011;39553;52.954;5.932;2022-11-15T07:00:46;91.55;;;37.05;;
53652;SDS011;39553;52.954;5.932;2022-11-15T07:03:12;77.32;;;35.60;;
53652;SDS011;39553;52.954;5.932;2022-11-15T07:05:37;83.63;;;34.58;;
53652;SDS011;39553;52.954;5.932;2022-11-15T07:08:03;73.45;;;35.05;;
53652;SDS011;39553;52.954;5.932;2022-11-15T07:10:29;82.93;;;33.95;;
53652;SDS011;39553;52.954;5.932;2022-11-15T07:12:55;75.25;;;33.85;;
53652;SDS011;39553;52.954;5.932;2022-11-15T07:15:22;70.55;;;32.08;;
53652;SDS011;39553;52.954;5.932;2022-11-15T07:17:51;75.80;;;33.13;;
53652;SDS011;39553;52.954;5.932;2022-11-15T07:20:17;76.63;;;34.42;;
53652;SDS011;39553;52.954;5.932;2022-11-15T07:22:43;66.45;;;30.77;;
53652;SDS011;39553;52.954;5.932;2022-11-15T07:25:12;82.85;;;31.90;;
53652;SDS011;39553;52.954;5.932;2022-11-15T07:27:38;75.28;;;35.95;;
53652;SDS011;39553;52.954;5.932;2022-11-15T07:30:04;62.58;;;29.85;;
53652;SDS011;39553;52.954;5.932;2022-11-15T07:32:30;53.72;;;27.15;;
53652;SDS011;39553;52.954;5.932;2022-11-15T07:34:56;59.55;;;28.88;;
53652;SDS011;39553;52.954;5.932;2022-11-15T07:37:21;61.95;;;31.15;;
53652;SDS011;39553;52.954;5.932;2022-11-15T07:39:47;72.97;;;33.97;;
53652;SDS011;39553;52.954;5.932;2022-11-15T07:42:13;56.10;;;30.13;;
53652;SDS011;39553;52.954;5.932;2022-11-15T07:44:57;48.20;;;27.15;;
53652;SDS011;39553;52.954;5.932;2022-11-15T07:47:23;64.82;;;29.00;;
53652;SDS011;39553;52.954;5.932;2022-11-15T07:49:49;58.03;;;29.05;;
53652;SDS011;39553;52.954;5.932;2022-11-15T07:52:15;58.33;;;27.75;;
53652;SDS011;39553;52.954;5.932;2022-11-15T07:54:40;51.80;;;27.60;;
53652;SDS011;39553;52.954;5.932;2022-11-15T07:57:06;50.85;;;26.75;;
53652;SDS011;39553;52.954;5.932;2022-11-15T07:59:34;57.47;;;26.33;;
53652;SDS011;39553;52.954;5.932;2022-11-15T08:02:00;47.92;;;26.88;;
53652;SDS011;39553;52.954;5.932;2022-11-15T08:04:25;56.85;;;27.52;;
53652;SDS011;39553;52.954;5.932;2022-11-15T08:06:51;50.72;;;26.50;;
53652;SDS011;39553;52.954;5.932;2022-11-15T08:09:17;44.22;;;26.30;;
53652;SDS011;39553;52.954;5.932;2022-11-15T08:11:43;48.72;;;27.00;;
53652;SDS011;39553;52.954;5.932;2022-11-15T08:14:08;54.58;;;27.55;;
53652;SDS011;39553;52.954;5.932;2022-11-15T08:16:34;54.90;;;26.85;;
53652;SDS011;39553;52.954;5.932;2022-11-15T08:19:00;47.90;;;26.42;;
53652;SDS011;39553;52.954;5.932;2022-11-15T08:21:25;51.35;;;26.70;;
53652;SDS011;39553;52.954;5.932;2022-11-15T08:23:51;51.38;;;26.98;;
53652;SDS011;39553;52.954;5.932;2022-11-15T08:26:17;55.38;;;27.45;;
53652;SDS011;39553;52.954;5.932;2022-11-15T08:28:43;47.78;;;27.00;;
53652;SDS011;39553;52.954;5.932;2022-11-15T08:31:15;51.25;;;27.25;;
53652;SDS011;39553;52.954;5.932;2022-11-15T08:33:43;43.75;;;25.75;;
53652;SDS011;39553;52.954;5.932;2022-11-15T08:36:11;49.13;;;25.50;;
53652;SDS011;39553;52.954;5.932;2022-11-15T08:38:39;47.78;;;25.85;;
53652;SDS011;39553;52.954;5.932;2022-11-15T08:41:05;46.97;;;24.45;;
53652;SDS011;39553;52.954;5.932;2022-11-15T08:43:32;46.55;;;25.02;;
53652;SDS011;39553;52.954;5.932;2022-11-15T08:45:58;53.13;;;26.02;;
53652;SDS011;39553;52.954;5.932;2022-11-15T08:48:24;45.95;;;25.15;;
53652;SDS011;39553;52.954;5.932;2022-11-15T08:50:54;41.63;;;24.30;;
53652;SDS011;39553;52.954;5.932;2022-11-15T08:53:21;41.17;;;24.48;;
53652;SDS011;39553;52.954;5.932;2022-11-15T08:55:47;50.17;;;25.00;;
53652;SDS011;39553;52.954;5.932;2022-11-15T08:58:12;40.28;;;23.25;;
53652;SDS011;39553;52.954;5.932;2022-11-15T09:00:38;38.75;;;23.80;;
53652;SDS011;39553;52.954;5.932;2022-11-15T09:03:04;46.80;;;24.85;;
53652;SDS011;39553;52.954;5.932;2022-11-15T09:05:31;44.40;;;23.55;;
53652;SDS011;39553;52.954;5.932;2022-11-15T09:07:57;46.05;;;23.50;;
53652;SDS011;39553;52.954;5.932;2022-11-15T09:10:22;41.65;;;23.08;;
53652;SDS011;39553;52.954;5.932;2022-11-15T09:12:49;39.35;;;23.95;;
53652;SDS011;39553;52.954;5.932;2022-11-15T09:15:15;42.88;;;22.15;;
53652;SDS011;39553;52.954;5.932;2022-11-15T09:17:42;43.17;;;21.25;;
53652;SDS011;39553;52.954;5.932;2022-11-15T09:20:08;40.28;;;23.92;;
53652;SDS011;39553;52.954;5.932;2022-11-15T09:22:34;38.75;;;22.05;;
53652;SDS011;39553;52.954;5.932;2022-11-15T09:25:01;35.20;;;21.05;;
53652;SDS011;39553;52.954;5.932;2022-11-15T09:27:28;37.05;;;21.40;;
53652;SDS011;39553;52.954;5.932;2022-11-15T09:29:55;38.13;;;22.33;;
53652;SDS011;39553;52.954;5.932;2022-11-15T09:32:21;40.08;;;22.35;;
53652;SDS011;39553;52.954;5.932;2022-11-15T09:34:50;39.28;;;21.50;;
53652;SDS011;39553;52.954;5.932;2022-11-15T09:37:16;39.22;;;21.00;;
53652;SDS011;39553;52.954;5.932;2022-11-15T09:39:42;34.30;;;21.27;;
53652;SDS011;39553;52.954;5.932;2022-11-15T09:47:15;32.38;;;21.00;;
53652;SDS011;39553;52.954;5.932;2022-11-15T09:50:11;34.15;;;20.88;;
53652;SDS011;39553;52.954;5.932;2022-11-15T09:52:41;37.25;;;20.58;;
53652;SDS011;39553;52.954;5.932;2022-11-15T09:55:13;28.65;;;18.13;;
53652;SDS011;39553;52.954;5.932;2022-11-15T09:57:54;34.33;;;18.15;;
53652;SDS011;39553;52.954;5.932;2022-11-15T10:00:37;32.92;;;17.83;;
53652;SDS011;39553;52.954;5.932;2022-11-15T10:03:08;31.83;;;18.05;;
53652;SDS011;39553;52.954;5.932;2022-11-15T10:08:22;29.50;;;18.00;;
53652;SDS011;39553;52.954;5.932;2022-11-15T10:10:59;34.05;;;18.38;;
53652;SDS011;39553;52.954;5.932;2022-11-15T10:13:31;29.48;;;17.20;;
53652;SDS011;39553;52.954;5.932;2022-11-15T10:16:04;30.92;;;17.20;;
53652;SDS011;39553;52.954;5.932;2022-11-15T10:24:19;30.67;;;18.05;;
53652;SDS011;39553;52.954;5.932;2022-11-15T10:26:49;34.78;;;19.50;;
53652;SDS011;39553;52.954;5.932;2022-11-15T10:29:22;23.95;;;15.45;;
53652;SDS011;39553;52.954;5.932;2022-11-15T10:31:49;29.48;;;18.00;;
53652;SDS011;39553;52.954;5.932;2022-11-15T10:34:16;31.75;;;16.85;;
53652;SDS011;39553;52.954;5.932;2022-11-15T10:36:45;26.80;;;16.38;;
53652;SDS011;39553;52.954;5.932;2022-11-15T10:39:31;25.70;;;16.83;;
53652;SDS011;39553;52.954;5.932;2022-11-15T10:42:00;27.13;;;16.45;;
53652;SDS011;39553;52.954;5.932;2022-11-15T10:44:41;28.33;;;14.93;;
53652;SDS011;39553;52.954;5.932;2022-11-15T10:47:50;24.40;;;15.43;;
53652;SDS011;39553;52.954;5.932;2022-11-15T10:49:58;27.20;;;15.98;;
53652;SDS011;39553;52.954;5.932;2022-11-15T10:52:26;31.13;;;15.68;;
53652;SDS011;39553;52.954;5.932;2022-11-15T10:57:50;24.38;;;13.75;;
53652;SDS011;39553;52.954;5.932;2022-11-15T11:02:58;22.80;;;12.48;;
53652;SDS011;39553;52.954;5.932;2022-11-15T11:05:28;19.60;;;12.13;;
53652;SDS011;39553;52.954;5.932;2022-11-15T11:08:03;18.35;;;12.55;;
53652;SDS011;39553;52.954;5.932;2022-11-15T11:10:58;20.35;;;12.25;;
53652;SDS011;39553;52.954;5.932;2022-11-15T11:13:29;19.08;;;11.80;;
53652;SDS011;39553;52.954;5.932;2022-11-15T11:16:06;16.63;;;11.13;;
53652;SDS011;39553;52.954;5.932;2022-11-15T11:24:20;18.02;;;10.68;;
53652;SDS011;39553;52.954;5.932;2022-11-15T11:27:16;16.60;;;10.07;;
53652;SDS011;39553;52.954;5.932;2022-11-15T11:29:47;14.48;;;9.75;;
53652;SDS011;39553;52.954;5.932;2022-11-15T11:35:17;17.15;;;10.20;;
53652;SDS011;39553;52.954;5.932;2022-11-15T11:37:52;13.20;;;8.95;;
53652;SDS011;39553;52.954;5.932;2022-11-15T11:40:42;13.68;;;9.38;;
53652;SDS011;39553;52.954;5.932;2022-11-15T11:49:15;16.23;;;8.80;;
53652;SDS011;39553;52.954;5.932;2022-11-15T11:51:22;12.50;;;8.43;;
53652;SDS011;39553;52.954;5.932;2022-11-15T11:54:03;12.65;;;8.45;;
53652;SDS011;39553;52.954;5.932;2022-11-15T11:56:37;9.57;;;7.22;;
53652;SDS011;39553;52.954;5.932;2022-11-15T11:59:12;12.65;;;6.50;;
53652;SDS011;39553;52.954;5.932;2022-11-15T12:01:54;9.90;;;6.05;;
53652;SDS011;39553;52.954;5.932;2022-11-15T12:04:27;10.27;;;6.50;;
53652;SDS011;39553;52.954;5.932;2022-11-15T12:07:13;9.65;;;5.97;;
53652;SDS011;39553;52.954;5.932;2022-11-15T12:12:52;8.38;;;4.47;;
53652;SDS011;39553;52.954;5.932;2022-11-15T12:15:36;9.52;;;4.65;;
53652;SDS011;39553;52.954;5.932;2022-11-15T12:18:07;7.82;;;3.80;;
53652;SDS011;39553;52.954;5.932;2022-11-15T12:20:39;7.03;;;3.67;;
53652;SDS011;39553;52.954;5.932;2022-11-15T12:23:15;7.78;;;3.42;;
53652;SDS011;39553;52.954;5.932;2022-11-15T12:25:50;5.72;;;3.70;;
53652;SDS011;39553;52.954;5.932;2022-11-15T12:28:25;5.13;;;3.78;;
53652;SDS011;39553;52.954;5.932;2022-11-15T12:31:36;6.80;;;3.58;;
53652;SDS011;39553;52.954;5.932;2022-11-15T12:34:13;3.75;;;2.97;;
53652;SDS011;39553;52.954;5.932;2022-11-15T12:36:49;13.20;;;3.60;;
53652;SDS011;39553;52.954;5.932;2022-11-15T12:39:16;5.10;;;3.08;;
53652;SDS011;39553;52.954;5.932;2022-11-15T12:41:44;6.25;;;3.55;;
53652;SDS011;39553;52.954;5.932;2022-11-15T13:04:55;6.45;;;4.00;;
53652;SDS011;39553;52.954;5.932;2022-11-15T13:22:44;7.05;;;3.30;;
53652;SDS011;39553;52.954;5.932;2022-11-15T13:27:57;4.53;;;3.17;;
53652;SDS011;39553;52.954;5.932;2022-11-15T13:30:24;4.97;;;3.05;;
53652;SDS011;39553;52.954;5.932;2022-11-15T13:32:51;7.82;;;3.20;;
53652;SDS011;39553;52.954;5.932;2022-11-15T13:35:25;4.13;;;3.03;;
53652;SDS011;39553;52.954;5.932;2022-11-15T13:40:26;8.85;;;3.78;;
53652;SDS011;39553;52.954;5.932;2022-11-15T13:42:55;6.25;;;3.72;;
53652;SDS011;39553;52.954;5.932;2022-11-15T13:45:22;5.70;;;3.55;;
53652;SDS011;39553;52.954;5.932;2022-11-15T13:47:56;4.82;;;3.17;;
53652;SDS011;39553;52.954;5.932;2022-11-15T13:50:29;8.00;;;3.20;;
53652;SDS011;39553;52.954;5.932;2022-11-15T13:52:59;5.25;;;2.55;;
53652;SDS011;39553;52.954;5.932;2022-11-15T13:55:28;7.55;;;2.85;;
53652;SDS011;39553;52.954;5.932;2022-11-15T13:57:58;4.40;;;3.03;;
53652;SDS011;39553;52.954;5.932;2022-11-15T14:03:18;7.15;;;2.47;;
53652;SDS011;39553;52.954;5.932;2022-11-15T14:06:09;3.47;;;2.80;;
53652;SDS011;39553;52.954;5.932;2022-11-15T14:09:00;5.63;;;2.00;;
53652;SDS011;39553;52.954;5.932;2022-11-15T14:11:32;4.03;;;2.50;;
53652;SDS011;39553;52.954;5.932;2022-11-15T14:14:09;2.20;;;1.73;;
53652;SDS011;39553;52.954;5.932;2022-11-15T14:19:06;5.65;;;2.10;;
53652;SDS011;39553;52.954;5.932;2022-11-15T14:22:06;3.80;;;2.08;;
53652;SDS011;39553;52.954;5.932;2022-11-15T14:24:32;5.38;;;2.80;;
53652;SDS011;39553;52.954;5.932;2022-11-15T14:27:15;7.07;;;2.72;;
53652;SDS011;39553;52.954;5.932;2022-11-15T14:29:41;3.72;;;2.05;;
53652;SDS011;39553;52.954;5.932;2022-11-15T14:34:45;4.50;;;3.17;;
53652;SDS011;39553;52.954;5.932;2022-11-15T14:37:30;7.55;;;2.58;;
53652;SDS011;39553;52.954;5.932;2022-11-15T14:40:01;6.05;;;2.33;;
53652;SDS011;39553;52.954;5.932;2022-11-15T14:42:28;5.18;;;2.30;;
53652;SDS011;39553;52.954;5.932;2022-11-15T14:44:54;7.88;;;3.15;;
53652;SDS011;39553;52.954;5.932;2022-11-15T14:47:19;10.80;;;3.20;;
53652;SDS011;39553;52.954;5.932;2022-11-15T14:49:46;7.63;;;2.50;;
53652;SDS011;39553;52.954;5.932;2022-11-15T14:54:54;4.00;;;1.75;;
53652;SDS011;39553;52.954;5.932;2022-11-15T14:57:21;5.53;;;2.40;;
53652;SDS011;39553;52.954;5.932;2022-11-15T14:59:47;6.68;;;2.00;;
53652;SDS011;39553;52.954;5.932;2022-11-15T15:02:20;2.38;;;1.60;;
53652;SDS011;39553;52.954;5.932;2022-11-15T15:04:47;3.30;;;1.73;;
53652;SDS011;39553;52.954;5.932;2022-11-15T15:07:14;4.50;;;1.80;;
53652;SDS011;39553;52.954;5.932;2022-11-15T15:09:40;7.15;;;2.22;;
53652;SDS011;39553;52.954;5.932;2022-11-15T15:12:22;4.97;;;1.90;;
53652;SDS011;39553;52.954;5.932;2022-11-15T15:14:49;5.82;;;2.33;;
53652;SDS011;39553;52.954;5.932;2022-11-15T15:17:15;4.60;;;1.75;;
53652;SDS011;39553;52.954;5.932;2022-11-15T15:19:42;6.68;;;1.80;;
53652;SDS011;39553;52.954;5.932;2022-11-15T15:22:10;3.88;;;1.73;;
53652;SDS011;39553;52.954;5.932;2022-11-15T15:24:41;4.30;;;1.85;;
53652;SDS011;39553;52.954;5.932;2022-11-15T15:27:08;4.93;;;1.80;;
53652;SDS011;39553;52.954;5.932;2022-11-15T15:29:34;3.17;;;1.50;;
53652;SDS011;39553;52.954;5.932;2022-11-15T15:31:59;3.90;;;1.85;;
53652;SDS011;39553;52.954;5.932;2022-11-15T15:34:25;3.70;;;1.73;;
53652;SDS011;39553;52.954;5.932;2022-11-15T15:39:58;4.97;;;2.15;;
53652;SDS011;39553;52.954;5.932;2022-11-15T15:42:24;3.22;;;1.58;;
53652;SDS011;39553;52.954;5.932;2022-11-15T15:44:50;4.68;;;2.10;;
53652;SDS011;39553;52.954;5.932;2022-11-15T15:47:20;5.05;;;3.00;;
53652;SDS011;39553;52.954;5.932;2022-11-15T15:49:46;3.70;;;2.45;;
53652;SDS011;39553;52.954;5.932;2022-11-15T15:52:13;6.13;;;3.00;;
53652;SDS011;39553;52.954;5.932;2022-11-15T15:54:39;5.05;;;3.15;;
53652;SDS011;39553;52.954;5.932;2022-11-15T15:57:05;7.07;;;2.47;;
53652;SDS011;39553;52.954;5.932;2022-11-15T15:59:31;5.22;;;2.53;;
53652;SDS011;39553;52.954;5.932;2022-11-15T16:01:57;2.88;;;2.00;;
53652;SDS011;39553;52.954;5.932;2022-11-15T16:04:24;8.48;;;3.05;;
53652;SDS011;39553;52.954;5.932;2022-11-15T16:06:51;5.28;;;2.30;;
53652;SDS011;39553;52.954;5.932;2022-11-15T16:09:18;4.22;;;2.55;;
53652;SDS011;39553;52.954;5.932;2022-11-15T16:12:04;8.70;;;3.58;;
53652;SDS011;39553;52.954;5.932;2022-11-15T16:14:31;7.70;;;3.22;;
53652;SDS011;39553;52.954;5.932;2022-11-15T16:16:57;10.07;;;3.03;;
53652;SDS011;39553;52.954;5.932;2022-11-15T16:19:22;7.40;;;3.28;;
53652;SDS011;39553;52.954;5.932;2022-11-15T16:21:48;4.75;;;3.45;;
53652;SDS011;39553;52.954;5.932;2022-11-15T16:24:14;5.38;;;3.28;;
53652;SDS011;39553;52.954;5.932;2022-11-15T16:26:40;6.07;;;3.38;;
53652;SDS011;39553;52.954;5.932;2022-11-15T16:29:07;7.38;;;3.45;;
53652;SDS011;39553;52.954;5.932;2022-11-15T16:31:34;8.93;;;4.05;;
53652;SDS011;39553;52.954;5.932;2022-11-15T16:34:00;10.45;;;3.55;;
53652;SDS011;39553;52.954;5.932;2022-11-15T16:36:25;6.20;;;3.38;;
53652;SDS011;39553;52.954;5.932;2022-11-15T16:38:52;7.72;;;3.40;;
53652;SDS011;39553;52.954;5.932;2022-11-15T16:41:18;6.63;;;3.53;;
53652;SDS011;39553;52.954;5.932;2022-11-15T16:43:47;5.38;;;3.42;;
53652;SDS011;39553;52.954;5.932;2022-11-15T16:46:23;8.38;;;3.75;;
53652;SDS011;39553;52.954;5.932;2022-11-15T16:48:50;7.60;;;3.60;;